createdAt,value
2018-07-08T00:01:20.800Z,63.00
2018-07-08T00:03:49.051Z,63.30
2018-07-08T00:08:45.423Z,63.50
2018-07-08T00:11:13.620Z,63.40
2018-07-08T00:13:41.806Z,64.00
2018-07-08T00:16:10.057Z,64.40
2018-07-08T00:18:38.341Z,64.60
2018-07-08T00:21:06.618Z,65.10
2018-07-08T00:23:34.877Z,65.50
2018-07-08T00:30:59.052Z,65.90
2018-07-08T00:33:27.266Z,66.10
2018-07-08T00:35:55.483Z,66.20
2018-07-08T00:38:23.768Z,66.40
2018-07-08T00:40:52.035Z,66.70
2018-07-08T00:43:21.424Z,66.60
2018-07-08T00:45:49.684Z,67.00
2018-07-08T00:48:17.902Z,67.40
2018-07-08T00:50:46.108Z,67.70
2018-07-08T00:53:14.378Z,68.00
2018-07-08T00:55:42.642Z,68.50
2018-07-08T00:58:10.830Z,68.80
2018-07-08T01:00:39.036Z,68.90
2018-07-08T01:03:09.238Z,69.40
2018-07-08T01:05:37.518Z,69.50
2018-07-08T01:08:05.918Z,69.70
2018-07-08T01:10:34.162Z,69.70
2018-07-08T01:13:02.968Z,70.80
2018-07-08T01:17:59.272Z,70.30
2018-07-08T01:20:27.459Z,70.70
2018-07-08T01:22:55.730Z,70.80
2018-07-08T01:25:35.356Z,70.80
2018-07-08T01:28:03.543Z,71.00
2018-07-08T01:30:31.777Z,70.90
2018-07-08T01:32:59.984Z,71.00
2018-07-08T01:35:28.246Z,71.50
2018-07-08T01:37:56.520Z,71.40
2018-07-08T01:40:24.700Z,71.40
2018-07-08T01:45:21.045Z,71.90
2018-07-08T01:47:49.320Z,72.40
2018-07-08T01:50:17.549Z,72.70
2018-07-08T01:52:45.734Z,73.00
2018-07-08T01:55:14.175Z,72.80
2018-07-08T01:57:42.361Z,73.20
2018-07-08T02:00:10.549Z,73.40
2018-07-08T02:02:38.817Z,73.40
2018-07-08T02:05:07.057Z,73.50
2018-07-08T02:07:35.348Z,73.70
2018-07-08T02:10:03.612Z,74.00
2018-07-08T02:12:31.901Z,74.30
2018-07-08T02:15:00.167Z,74.60
2018-07-08T02:17:28.397Z,74.70
2018-07-08T02:19:56.701Z,74.80
2018-07-08T02:22:24.937Z,74.90
2018-07-08T02:24:53.215Z,75.00
2018-07-08T02:27:22.261Z,75.40
2018-07-08T02:29:50.497Z,75.40
2018-07-08T02:32:18.699Z,75.60
2018-07-08T02:34:46.969Z,75.70
2018-07-08T02:37:15.249Z,75.80
2018-07-08T02:42:11.523Z,76.20
2018-07-08T02:44:39.887Z,76.40
2018-07-08T02:47:08.348Z,76.50
2018-07-08T02:49:36.547Z,76.50
2018-07-08T02:52:04.859Z,76.70
2018-07-08T02:57:01.320Z,77.30
2018-07-08T02:59:29.508Z,77.60
2018-07-08T03:01:57.794Z,77.90
2018-07-08T03:04:26.062Z,78.20
2018-07-08T03:06:54.325Z,78.60
2018-07-08T03:09:22.606Z,79.00
2018-07-08T03:11:51.091Z,79.20
2018-07-08T03:14:19.362Z,79.40
2018-07-08T03:16:47.634Z,79.40
2018-07-08T03:19:16.205Z,79.70
2018-07-08T03:21:44.381Z,80.00
2018-07-08T03:24:12.769Z,80.20
2018-07-08T03:26:41.041Z,80.80
2018-07-08T03:29:09.236Z,81.10
2018-07-08T03:31:37.460Z,81.40
2018-07-08T03:34:05.705Z,81.60
2018-07-08T03:36:33.963Z,81.90
2018-07-08T03:39:02.221Z,82.20
2018-07-08T03:41:30.415Z,82.60
2018-07-08T03:43:58.695Z,83.10
2018-07-08T03:46:26.931Z,83.30
2018-07-08T03:48:55.213Z,83.50
2018-07-08T03:51:23.398Z,83.60
2018-07-08T03:53:51.583Z,83.80
2018-07-08T03:56:19.839Z,84.10
2018-07-08T03:58:48.028Z,84.40
2018-07-08T04:01:16.290Z,84.40
2018-07-08T04:03:44.543Z,84.40
2018-07-08T04:06:12.805Z,84.30
2018-07-08T04:08:41.147Z,84.50
2018-07-08T04:11:09.757Z,84.80
2018-07-08T04:13:37.973Z,85.10
2018-07-08T04:16:07.388Z,85.20
2018-07-08T04:18:35.697Z,85.30
2018-07-08T04:21:03.951Z,85.30
2018-07-08T04:23:32.225Z,85.40
2018-07-08T04:26:00.456Z,85.70
2018-07-08T04:28:28.651Z,85.80
2018-07-08T04:30:56.909Z,86.10
2018-07-08T04:33:25.085Z,86.20
2018-07-08T04:35:53.293Z,86.30
2018-07-08T04:38:21.583Z,86.10
2018-07-08T04:40:49.814Z,86.00
2018-07-08T04:43:18.026Z,86.10
2018-07-08T04:45:46.223Z,85.90
2018-07-08T04:48:14.403Z,85.50
2018-07-08T04:50:42.673Z,85.70
2018-07-08T04:53:10.916Z,85.90
2018-07-08T04:58:07.154Z,85.70
2018-07-08T05:00:35.401Z,85.70
2018-07-08T05:03:03.707Z,85.50
2018-07-08T05:05:31.940Z,85.30
2018-07-08T05:08:00.228Z,85.20
2018-07-08T05:10:28.414Z,85.20
2018-07-08T05:12:56.684Z,84.80
2018-07-08T05:15:24.949Z,84.80
2018-07-08T05:17:53.572Z,84.50
2018-07-08T05:20:21.805Z,84.30
2018-07-08T05:22:50.020Z,84.20
2018-07-08T05:25:18.304Z,84.00
2018-07-08T05:27:46.492Z,84.10
2018-07-08T05:30:14.876Z,84.40
2018-07-08T05:32:43.156Z,83.50
2018-07-08T05:35:11.404Z,84.30
2018-07-08T05:37:39.632Z,83.50
2018-07-08T05:40:07.824Z,83.10
2018-07-08T05:42:36.064Z,82.80
2018-07-08T05:45:04.348Z,82.40
2018-07-08T05:47:32.602Z,82.30
2018-07-08T05:52:28.896Z,81.40
2018-07-08T05:54:57.158Z,81.30
2018-07-08T05:57:25.484Z,81.20
2018-07-08T05:59:53.696Z,80.80
2018-07-08T06:02:21.952Z,80.40
2018-07-08T06:04:50.196Z,80.20
2018-07-08T06:07:18.436Z,79.90
2018-07-08T06:12:14.768Z,78.70
2018-07-08T06:14:43.060Z,78.20
2018-07-08T06:17:11.340Z,77.80
2018-07-08T06:19:39.592Z,77.20
2018-07-08T06:22:07.808Z,77.00
2018-07-08T06:24:36.021Z,76.50
2018-07-08T06:27:04.336Z,76.30
2018-07-08T06:29:32.591Z,75.80
2018-07-08T06:32:00.908Z,75.80
2018-07-08T06:34:29.130Z,75.50
2018-07-08T06:39:25.510Z,75.00
2018-07-08T06:41:53.700Z,74.20
2018-07-08T06:44:21.952Z,73.60
2018-07-08T06:46:50.148Z,73.50
2018-07-08T06:49:18.406Z,72.90
2018-07-08T06:54:14.760Z,72.40
2018-07-08T06:56:42.995Z,71.40
2018-07-08T06:59:11.451Z,71.30
2018-07-08T07:01:39.714Z,71.20
2018-07-08T07:04:07.964Z,70.80
2018-07-08T07:06:36.144Z,70.50
2018-07-08T07:09:06.054Z,69.20
2018-07-08T07:11:34.317Z,68.40
2018-07-08T07:14:02.562Z,67.10
2018-07-08T07:16:30.842Z,65.90
2018-07-08T07:18:59.044Z,65.30
2018-07-08T07:21:27.301Z,65.20
2018-07-08T07:23:55.542Z,64.20
2018-07-08T07:26:24.905Z,63.10
2018-07-08T07:28:53.156Z,63.00
2018-07-08T07:31:21.398Z,60.80
2018-07-08T07:33:49.668Z,60.10
2018-07-08T07:36:17.943Z,60.20
2018-07-08T07:38:46.163Z,60.20
2018-07-08T07:41:14.414Z,60.30
2018-07-08T07:43:42.672Z,60.30
2018-07-08T07:46:10.869Z,59.40
2018-07-08T07:48:39.119Z,59.60
2018-07-08T07:51:07.306Z,59.20
2018-07-08T07:53:35.547Z,58.50
2018-07-08T07:56:03.763Z,58.20
2018-07-08T07:58:32.175Z,57.80
2018-07-08T08:01:00.401Z,57.90
2018-07-08T08:03:28.606Z,58.60
2018-07-08T08:05:56.841Z,58.20
2018-07-08T08:08:25.032Z,57.70
2018-07-08T08:13:21.339Z,56.90
2018-07-08T08:15:49.592Z,56.30
2018-07-08T08:18:17.833Z,55.40
2018-07-08T08:20:46.042Z,55.20
2018-07-08T08:23:14.282Z,55.10
2018-07-08T08:25:42.477Z,54.30
2018-07-08T08:28:10.652Z,53.70
2018-07-08T08:30:38.907Z,53.20
2018-07-08T08:33:07.119Z,53.30
2018-07-08T08:35:35.314Z,53.30
2018-07-08T08:38:03.590Z,53.30
2018-07-08T08:42:59.996Z,53.20
2018-07-08T08:45:29.567Z,52.00
2018-07-08T08:47:57.841Z,51.30
2018-07-08T08:50:26.146Z,51.10
2018-07-08T08:52:54.333Z,51.00
2018-07-08T08:55:22.532Z,50.30
2018-07-08T08:57:50.726Z,49.10
2018-07-08T09:00:19.642Z,49.40
2018-07-08T09:02:47.911Z,49.60
2018-07-08T09:05:16.103Z,48.30
2018-07-08T09:07:44.360Z,47.30
2018-07-08T09:10:12.615Z,48.00
2018-07-08T09:12:40.907Z,47.90
2018-07-08T09:15:09.166Z,47.70
2018-07-08T09:17:37.354Z,46.90
2018-07-08T09:20:05.780Z,46.80
2018-07-08T09:22:34.056Z,47.10
2018-07-08T09:25:02.488Z,46.80
2018-07-08T09:27:30.737Z,46.30
2018-07-08T09:29:59.049Z,46.20
2018-07-08T09:32:27.300Z,45.40
2018-07-08T09:34:55.497Z,45.10
2018-07-08T09:37:23.759Z,43.20
2018-07-08T09:39:51.955Z,42.90
2018-07-08T09:42:20.200Z,43.20
2018-07-08T09:44:48.465Z,43.70
2018-07-08T09:47:16.723Z,43.70
2018-07-08T09:49:44.911Z,43.20
2018-07-08T09:52:13.111Z,41.50
2018-07-08T09:54:41.365Z,41.10
2018-07-08T09:57:10.067Z,40.10
2018-07-08T09:59:38.271Z,39.70
2018-07-08T10:02:08.378Z,38.60
2018-07-08T10:07:05.240Z,37.90
2018-07-08T10:09:33.494Z,38.50
2018-07-08T10:12:01.702Z,37.60
2018-07-08T10:14:29.978Z,37.70
2018-07-08T10:16:58.353Z,37.70
2018-07-08T10:19:26.638Z,35.40
2018-07-08T10:21:54.774Z,35.20
2018-07-08T10:24:23.040Z,34.90
2018-07-08T10:28:18.265Z,34.30
2018-07-08T10:30:46.748Z,33.40
2018-07-08T10:33:15.016Z,31.20
2018-07-08T10:35:56.277Z,31.90
2018-07-08T10:38:24.552Z,31.50
2018-07-08T10:40:52.812Z,30.40
2018-07-08T10:43:21.048Z,29.70
2018-07-08T10:45:49.198Z,28.70
2018-07-08T10:48:17.436Z,28.30
2018-07-08T10:50:45.663Z,27.80
2018-07-08T10:53:13.922Z,27.50
2018-07-08T10:55:42.104Z,27.20
2018-07-08T10:58:10.982Z,27.00
2018-07-08T11:00:39.209Z,27.20
2018-07-08T11:03:07.475Z,26.70
2018-07-08T11:05:35.695Z,26.10
2018-07-08T11:10:31.880Z,25.60
2018-07-08T11:13:00.137Z,25.80
2018-07-08T11:15:28.644Z,25.60
2018-07-08T11:17:56.840Z,25.40
2018-07-08T11:20:25.097Z,25.10
2018-07-08T11:22:53.285Z,24.30
2018-07-08T11:25:21.558Z,24.70
2018-07-08T11:27:49.753Z,24.30
2018-07-08T11:30:17.958Z,23.20
2018-07-08T11:32:46.144Z,23.10
2018-07-08T11:35:14.429Z,23.70
2018-07-08T11:37:42.704Z,23.40
2018-07-08T11:40:10.910Z,22.80
2018-07-08T11:42:39.104Z,23.50
2018-07-08T11:45:07.342Z,24.10
2018-07-08T11:47:35.642Z,23.90
2018-07-08T11:52:31.864Z,23.60
2018-07-08T11:55:00.063Z,23.10
2018-07-08T11:57:28.314Z,23.40
2018-07-08T11:59:56.966Z,23.90
2018-07-08T12:02:25.173Z,24.40
2018-07-08T12:04:53.436Z,23.60
2018-07-08T12:07:21.686Z,23.00
2018-07-08T12:09:49.936Z,23.50
2018-07-08T12:12:18.170Z,24.00
2018-07-08T12:14:46.468Z,23.00
2018-07-08T12:17:14.776Z,23.00
2018-07-08T12:19:43.042Z,23.20
2018-07-08T12:22:11.324Z,23.10
2018-07-08T12:24:40.104Z,22.90
2018-07-08T12:27:08.386Z,23.10
2018-07-08T12:29:36.640Z,22.40
2018-07-08T12:32:05.139Z,21.90
2018-07-08T12:34:33.436Z,21.60
2018-07-08T12:37:01.749Z,22.00
2018-07-08T12:39:29.950Z,22.30
2018-07-08T12:44:26.402Z,23.00
2018-07-08T12:46:54.563Z,23.10
2018-07-08T12:49:22.784Z,22.90
2018-07-08T12:51:51.058Z,22.40
2018-07-08T12:54:19.255Z,22.20
2018-07-08T12:56:47.449Z,22.10
2018-07-08T12:59:15.658Z,22.10
2018-07-08T13:01:43.967Z,22.10
2018-07-08T13:04:12.292Z,22.30
2018-07-08T13:06:40.581Z,22.60
2018-07-08T13:09:08.756Z,21.80
2018-07-08T13:11:36.946Z,21.50
2018-07-08T13:14:05.188Z,21.20
2018-07-08T13:16:33.678Z,21.10
2018-07-08T13:19:01.961Z,21.60
2018-07-08T13:21:30.194Z,21.20
2018-07-08T13:23:58.456Z,20.80
2018-07-08T13:26:26.762Z,20.60
2018-07-08T13:28:54.928Z,20.90
2018-07-08T13:31:23.130Z,20.90
2018-07-08T13:33:51.406Z,21.00
2018-07-08T13:36:19.664Z,20.70
2018-07-08T13:38:48.132Z,21.00
2018-07-08T13:41:16.332Z,21.10
2018-07-08T13:43:44.740Z,20.90
2018-07-08T13:46:15.204Z,21.10
2018-07-08T13:48:43.460Z,21.00
2018-07-08T13:51:11.716Z,21.20
2018-07-08T13:53:39.936Z,21.30
2018-07-08T13:56:08.196Z,21.20
2018-07-08T13:58:36.408Z,21.30
2018-07-08T14:01:04.691Z,20.70
2018-07-08T14:03:33.141Z,21.10
2018-07-08T14:06:01.343Z,21.20
2018-07-08T14:08:29.615Z,21.70
2018-07-08T14:10:57.803Z,21.90
2018-07-08T14:13:26.081Z,22.10
2018-07-08T14:15:54.346Z,21.60
2018-07-08T14:18:22.601Z,22.10
2018-07-08T14:20:50.872Z,22.20
2018-07-08T14:23:19.065Z,22.60
2018-07-08T14:25:47.345Z,22.20
2018-07-08T14:28:16.210Z,22.40
2018-07-08T14:30:45.827Z,22.80
2018-07-08T14:33:14.120Z,23.00
2018-07-08T14:35:42.312Z,22.90
2018-07-08T14:38:10.524Z,23.20
2018-07-08T14:40:38.773Z,23.90
2018-07-08T14:43:06.941Z,24.00
2018-07-08T14:45:35.155Z,24.30
2018-07-08T14:48:03.377Z,24.20
2018-07-08T14:50:31.653Z,24.70
2018-07-08T14:52:59.871Z,24.50
2018-07-08T14:55:28.167Z,24.80
2018-07-08T14:57:56.435Z,24.80
2018-07-08T15:00:24.670Z,25.00
2018-07-08T15:02:52.948Z,24.50
2018-07-08T15:05:21.197Z,24.80
2018-07-08T15:07:49.459Z,24.40
2018-07-08T15:10:17.729Z,24.70
2018-07-08T15:12:46.289Z,25.40
2018-07-08T15:15:14.591Z,25.30
2018-07-08T15:17:42.861Z,24.90
2018-07-08T15:20:11.061Z,25.40
2018-07-08T15:22:39.314Z,25.20
2018-07-08T15:25:07.600Z,25.50
2018-07-08T15:27:35.923Z,25.20
2018-07-08T15:30:04.213Z,25.50
2018-07-08T15:32:32.613Z,25.30
2018-07-08T15:35:00.899Z,25.50
2018-07-08T15:39:57.201Z,24.90
2018-07-08T15:42:25.383Z,24.50
2018-07-08T15:44:53.644Z,24.70
2018-07-08T15:47:22.107Z,25.10
2018-07-08T15:49:50.255Z,25.30
2018-07-08T15:52:18.436Z,25.90
2018-07-08T15:54:47.015Z,25.90
2018-07-08T15:57:15.268Z,26.00
2018-07-08T15:59:43.716Z,25.60
2018-07-08T16:02:14.600Z,25.50
2018-07-08T16:04:42.814Z,25.50
2018-07-08T16:07:11.354Z,25.70
2018-07-08T16:09:39.528Z,25.80
2018-07-08T16:12:07.831Z,25.70
2018-07-08T16:14:36.048Z,25.80
2018-07-08T16:17:04.342Z,26.00
2018-07-08T16:19:32.623Z,26.00
2018-07-08T16:22:00.832Z,26.00
2018-07-08T16:24:29.114Z,25.80
2018-07-08T16:26:57.806Z,25.90
2018-07-08T16:29:26.078Z,25.40
2018-07-08T16:31:54.425Z,25.50
2018-07-08T16:34:22.654Z,25.70
2018-07-08T16:36:50.956Z,26.50
2018-07-08T16:39:19.224Z,26.60
2018-07-08T16:41:47.450Z,26.60
2018-07-08T16:46:43.626Z,26.80
2018-07-08T16:49:11.893Z,27.20
2018-07-08T16:51:40.154Z,27.10
2018-07-08T16:54:08.379Z,27.00
2018-07-08T16:56:36.614Z,26.80
2018-07-08T16:59:04.838Z,26.90
2018-07-08T17:01:33.052Z,26.80
2018-07-08T17:04:01.261Z,27.00
2018-07-08T17:06:29.546Z,26.90
2018-07-08T17:11:25.854Z,26.80
2018-07-08T17:13:54.080Z,27.30
2018-07-08T17:16:22.302Z,27.30
2018-07-08T17:18:50.850Z,27.20
2018-07-08T17:21:19.100Z,27.50
2018-07-08T17:23:47.405Z,27.50
2018-07-08T17:26:16.294Z,27.70
2018-07-08T17:28:44.552Z,27.90
2018-07-08T17:31:12.806Z,27.80
2018-07-08T17:33:41.052Z,27.70
2018-07-08T17:38:38.112Z,28.00
2018-07-08T17:41:06.679Z,28.20
2018-07-08T17:43:35.097Z,28.50
2018-07-08T17:46:03.563Z,28.70
2018-07-08T17:48:31.828Z,28.70
2018-07-08T17:51:00.225Z,28.50
2018-07-08T17:55:56.408Z,28.90
2018-07-08T18:00:52.609Z,28.90
2018-07-08T18:03:20.844Z,29.00
2018-07-08T18:08:17.058Z,29.20
2018-07-08T18:10:45.267Z,29.30
2018-07-08T18:13:13.494Z,29.40
2018-07-08T18:15:41.826Z,29.60
2018-07-08T18:18:10.036Z,29.80
2018-07-08T18:20:38.497Z,30.20
2018-07-08T18:23:06.763Z,30.70
2018-07-08T18:25:35.020Z,30.60
2018-07-08T18:28:03.270Z,30.90
2018-07-08T18:30:32.983Z,31.20
2018-07-08T18:33:01.252Z,31.80
2018-07-08T18:35:29.464Z,32.00
2018-07-08T18:37:57.747Z,32.10
2018-07-08T18:40:25.957Z,32.30
2018-07-08T18:42:54.182Z,32.50
2018-07-08T18:45:22.364Z,32.60
2018-07-08T18:47:50.673Z,32.70
2018-07-08T18:50:18.880Z,32.90
2018-07-08T18:52:47.150Z,33.00
2018-07-08T18:55:15.869Z,33.20
2018-07-08T18:57:44.139Z,33.60
2018-07-08T19:02:40.534Z,34.20
2018-07-08T19:05:08.738Z,34.20
2018-07-08T19:07:36.980Z,34.40
2018-07-08T19:10:05.266Z,34.60
2018-07-08T19:12:33.716Z,34.80
2018-07-08T19:15:01.990Z,34.70
2018-07-08T19:17:30.246Z,34.80
2018-07-08T19:19:58.552Z,35.00
2018-07-08T19:22:26.750Z,35.10
2018-07-08T19:24:55.812Z,35.20
2018-07-08T19:27:24.272Z,35.30
2018-07-08T19:29:52.478Z,35.20
2018-07-08T19:32:20.704Z,35.40
2018-07-08T19:34:48.998Z,35.50
2018-07-08T19:37:17.274Z,35.60
2018-07-08T19:39:45.494Z,35.90
2018-07-08T19:42:13.694Z,35.80
2018-07-08T19:47:10.143Z,36.00
2018-07-08T19:49:38.369Z,36.10
2018-07-08T19:52:06.618Z,36.70
2018-07-08T19:54:34.872Z,36.40
2018-07-08T19:57:03.185Z,36.50
2018-07-08T19:59:31.430Z,36.40
2018-07-08T20:01:59.793Z,36.60
2018-07-08T20:04:27.973Z,37.00
2018-07-08T20:06:56.497Z,36.90
2018-07-08T20:09:24.700Z,37.10
2018-07-08T20:14:20.995Z,37.10
2018-07-08T20:16:49.261Z,37.20
2018-07-08T20:19:17.605Z,37.20
2018-07-08T20:21:46.009Z,37.70
2018-07-08T20:24:14.343Z,37.50
2018-07-08T20:26:42.625Z,37.80
2018-07-08T20:29:10.879Z,38.10
2018-07-08T20:31:39.695Z,38.00
2018-07-08T20:34:07.981Z,38.20
2018-07-08T20:36:36.447Z,38.70
2018-07-08T20:39:05.700Z,39.00
2018-07-08T20:41:33.992Z,39.20
2018-07-08T20:44:02.217Z,39.20
2018-07-08T20:46:31.301Z,39.60
2018-07-08T20:48:59.661Z,40.10
2018-07-08T20:53:56.424Z,40.70
2018-07-08T20:56:24.810Z,40.80
2018-07-08T20:58:53.177Z,40.80
2018-07-08T21:01:21.817Z,41.30
2018-07-08T21:03:50.023Z,41.20
2018-07-08T21:06:18.227Z,41.40
2018-07-08T21:08:46.478Z,41.50
2018-07-08T21:11:14.725Z,41.20
2018-07-08T21:13:43.005Z,41.20
2018-07-08T21:16:11.623Z,40.90
2018-07-08T21:18:39.914Z,40.90
2018-07-08T21:21:08.197Z,41.00
2018-07-08T21:23:36.495Z,41.30
2018-07-08T21:26:04.799Z,41.30
2018-07-08T21:28:33.166Z,41.20
2018-07-08T21:31:01.449Z,41.20
2018-07-08T21:33:29.697Z,41.60
2018-07-08T21:35:57.911Z,41.70
2018-07-08T21:40:55.445Z,41.80
2018-07-08T21:43:24.317Z,41.80
2018-07-08T21:48:20.557Z,42.00
2018-07-08T21:50:48.821Z,42.00
2018-07-08T21:53:17.255Z,42.10
2018-07-08T21:55:45.468Z,42.20
2018-07-08T21:58:13.679Z,42.30
2018-07-08T22:00:56.202Z,42.30
2018-07-08T22:03:24.547Z,42.50
2018-07-08T22:05:52.763Z,42.60
2018-07-08T22:08:25.218Z,42.70
2018-07-08T22:10:53.413Z,42.80
2018-07-08T22:13:21.678Z,42.80
2018-07-08T22:15:49.948Z,42.80
2018-07-08T22:18:18.221Z,42.90
2018-07-08T22:20:46.471Z,42.90
2018-07-08T22:23:14.688Z,43.20
2018-07-08T22:25:42.969Z,43.30
2018-07-08T22:28:11.473Z,43.40
2018-07-08T22:30:39.753Z,43.70
2018-07-08T22:33:08.064Z,43.60
2018-07-08T22:35:36.245Z,43.70
2018-07-08T22:38:04.503Z,43.80
2018-07-08T22:40:32.773Z,43.80
2018-07-08T22:43:00.975Z,44.00
2018-07-08T22:45:29.285Z,44.10
2018-07-08T22:47:57.550Z,44.20
2018-07-08T22:50:25.809Z,44.30
2018-07-08T22:52:54.031Z,44.40
2018-07-08T22:55:22.287Z,44.40
2018-07-08T22:57:50.569Z,44.50
2018-07-08T23:00:30.177Z,44.60
2018-07-08T23:04:06.163Z,44.70
2018-07-08T23:09:02.655Z,45.10
2018-07-08T23:11:30.926Z,45.30
2018-07-08T23:13:59.505Z,45.50
2018-07-08T23:16:28.291Z,45.60
2018-07-08T23:18:56.563Z,45.70
2018-07-08T23:21:24.760Z,45.70
2018-07-08T23:23:53.044Z,45.80
2018-07-08T23:26:21.301Z,45.90
2018-07-08T23:28:49.584Z,45.90
2018-07-08T23:31:17.781Z,45.90
2018-07-08T23:33:46.057Z,46.00
2018-07-08T23:36:14.263Z,46.00
2018-07-08T23:38:42.525Z,46.70
2018-07-08T23:41:11.518Z,46.10
2018-07-08T23:43:39.819Z,46.10
2018-07-08T23:46:08.111Z,46.20
2018-07-08T23:48:36.493Z,46.30
2018-07-08T23:51:04.739Z,46.30
2018-07-08T23:56:01.081Z,46.50
2018-07-08T23:58:29.363Z,46.50
